Terminal Aerodrome Forecast
Issued by NWS

Home | Current Version | Previous Version | Text Only | Print | Product List | Glossary On
Versions: 1 2 3 4 5 6 7 8 9 10 11 12 13 14 15 16 17
000
FTUS43 KDMX 161730
TAFMCW
TAF
KMCW 161730Z 1618/1718 16020G28KT P6SM OVC120
     FM162300 17015G22KT P6SM VCSH BKN040 OVC070
     FM170400 24013KT P6SM VCSH SCT016 BKN025
     FM170800 31015G21KT P6SM SCT012 BKN020
     FM171400 32016G24KT P6SM FEW020 SCT090=

USA.gov is the U.S. government's official web portal to all federal, state and local government web resources and services.